Lakeview, North Carolina
Current Conditions -  °F | °C
As of 5:35 PM on Monday 20 Oct 2014 (Local Time) from KSOP Reporting Station
Clear Clear  
Wind Chill: 70°   Ceiling: Unl
Heat Index: 70°   Visibility: 10mi
Dew Point: 45°   Wind: 7mph
Humidity: 40%   Direction: 240°WSW
Pressure: 29.99"   Gusts: NA
Location:  35.24°N, 79.31°W
Report Text: KSOP 202135Z AUTO 24006KT 10SM CLR 21/07 A2999 RMK AO1
Loading
Personal Weather Stations






























Interactive Weather Map
Tropical Storm Tracking
New forecast layout! Learn more

10-Day Weather Forecast

Advertisements
Track Severe Weather on mobile